Time;durP1;ratioP1;P1;durP2;ratioP2;P2;SDS_P1;SDS_P2;PMS_P1;PMS_P2;Temp;Humidity;BMP_temperature;BMP_pressure;BME280_temperature;BME280_humidity;BME280_pressure;Samples;Min_cycle;Max_cycle;Signal;HPM_P1;HPM_P2
2024/03/17 00:02:18;;;;;;;69.47;51.38;;;12.90;99.90;;;;;;5042160;28;20017;-80
2024/03/17 00:04:50;;;;;;;72.70;53.75;;;12.90;99.90;;;;;;5032643;28;20084;-80
2024/03/17 00:07:18;;;;;;;72.68;51.78;;;12.80;99.90;;;;;;5036571;28;20025;-80
2024/03/17 00:09:45;;;;;;;76.93;49.42;;;12.80;99.90;;;;;;5034172;28;20033;-81
2024/03/17 00:12:11;;;;;;;72.43;51.78;;;12.80;99.90;;;;;;5041510;28;20018;-81
2024/03/17 00:14:37;;;;;;;71.68;48.42;;;12.80;99.90;;;;;;5022721;28;20031;-80
2024/03/17 00:17:03;;;;;;;68.38;52.35;;;12.70;99.90;;;;;;5036190;28;20025;-81
2024/03/17 00:19:29;;;;;;;75.00;52.38;;;12.70;99.90;;;;;;5035189;28;20031;-81
2024/03/17 00:21:54;;;;;;;69.57;52.50;;;12.70;99.90;;;;;;5045306;28;20013;-81
2024/03/17 00:24:20;;;;;;;74.88;50.33;;;12.70;99.90;;;;;;5037964;28;20508;-81
2024/03/17 00:26:47;;;;;;;69.88;50.55;;;12.70;99.90;;;;;;5023951;28;20117;-81
2024/03/17 00:29:16;;;;;;;68.45;51.03;;;12.60;99.90;;;;;;5031790;28;20025;-80
2024/03/17 00:31:42;;;;;;;71.22;50.92;;;12.60;99.90;;;;;;5045312;28;20480;-80
2024/03/17 00:34:09;;;;;;;70.50;48.28;;;12.60;99.90;;;;;;5042152;28;20485;-81
2024/03/17 00:36:34;;;;;;;71.70;54.22;;;12.60;99.90;;;;;;5044083;28;20400;-81
2024/03/17 00:39:00;;;;;;;72.18;51.25;;;12.60;99.90;;;;;;5032872;28;20033;-80
2024/03/17 00:41:26;;;;;;;65.65;48.30;;;12.60;99.90;;;;;;5043427;28;20025;-81
2024/03/17 00:43:52;;;;;;;64.15;48.78;;;12.50;99.90;;;;;;5041092;28;20473;-81
2024/03/17 00:46:21;;;;;;;68.43;50.88;;;12.50;99.90;;;;;;5033757;28;20378;-81
2024/03/17 00:48:49;;;;;;;70.78;55.50;;;12.50;99.90;;;;;;5033070;28;20493;-81
2024/03/17 00:51:15;;;;;;;71.18;52.13;;;12.50;99.90;;;;;;5042133;28;20252;-81
2024/03/17 00:53:41;;;;;;;68.32;48.30;;;12.50;99.90;;;;;;5042971;28;20033;-81
2024/03/17 00:56:07;;;;;;;68.22;48.45;;;12.50;99.90;;;;;;5041066;28;20036;-80
2024/03/17 00:58:32;;;;;;;72.70;49.08;;;12.50;99.90;;;;;;5040290;28;20499;-81
2024/03/17 01:00:58;;;;;;;69.88;52.30;;;12.50;99.90;;;;;;5045512;28;20060;-81
2024/03/17 01:03:24;;;;;;;67.53;52.33;;;12.40;99.90;;;;;;5045024;28;20032;-81
2024/03/17 01:05:52;;;;;;;68.75;50.53;;;12.40;99.90;;;;;;5019581;28;20044;-80
2024/03/17 01:08:18;;;;;;;71.00;52.75;;;12.40;99.90;;;;;;5030980;28;20032;-81
2024/03/17 01:10:45;;;;;;;67.65;50.35;;;12.30;99.90;;;;;;5018513;28;20507;-80
2024/03/17 01:13:11;;;;;;;65.20;48.47;;;12.30;99.90;;;;;;5031735;28;20032;-81
2024/03/17 01:15:38;;;;;;;69.55;53.22;;;12.30;99.90;;;;;;5025715;28;20033;-80
2024/03/17 01:18:07;;;;;;;66.40;50.83;;;12.30;99.90;;;;;;5044354;28;20028;-80
2024/03/17 01:20:35;;;;;;;66.60;51.53;;;12.40;99.90;;;;;;5031631;28;20457;-80
2024/03/17 01:23:01;;;;;;;69.75;53.15;;;12.30;99.90;;;;;;5022141;28;20481;-81
2024/03/17 01:25:29;;;;;;;68.13;49.80;;;12.20;99.90;;;;;;5040933;28;20048;-81
2024/03/17 01:27:56;;;;;;;70.13;50.17;;;12.20;99.90;;;;;;5044645;28;20380;-80
2024/03/17 01:30:22;;;;;;;67.70;50.40;;;12.20;99.90;;;;;;5031847;28;20108;-81
2024/03/17 01:32:48;;;;;;;63.80;50.53;;;12.20;99.90;;;;;;5039861;28;20033;-81
2024/03/17 01:35:15;;;;;;;61.45;49.35;;;12.20;99.90;;;;;;5031601;28;20511;-81
2024/03/17 01:37:42;;;;;;;67.35;50.70;;;12.10;99.90;;;;;;5044334;28;20025;-81
2024/03/17 01:40:09;;;;;;;65.30;51.13;;;12.10;99.90;;;;;;5022509;28;20489;-80
2024/03/17 01:42:35;;;;;;;64.07;48.78;;;12.10;99.90;;;;;;5041382;28;20377;-80
2024/03/17 01:45:18;;;;;;;63.35;50.55;;;12.10;99.90;;;;;;5033759;28;20032;-80
2024/03/17 01:47:44;;;;;;;64.07;49.15;;;12.10;99.90;;;;;;5017319;28;20036;-80
2024/03/17 01:50:11;;;;;;;60.80;48.90;;;12.10;99.90;;;;;;5040126;28;20026;-80
2024/03/17 01:52:38;;;;;;;60.25;47.05;;;12.00;99.90;;;;;;5032942;28;20082;-81
2024/03/17 01:55:04;;;;;;;61.60;46.35;;;12.00;99.90;;;;;;5043794;28;20547;-81
2024/03/17 01:57:30;;;;;;;67.60;50.50;;;12.00;99.90;;;;;;5044100;28;20022;-81
2024/03/17 01:59:58;;;;;;;58.58;44.72;;;12.00;99.90;;;;;;5024425;28;20021;-80
2024/03/17 02:02:24;;;;;;;63.33;46.78;;;12.00;99.90;;;;;;5040879;28;20100;-81
2024/03/17 02:04:52;;;;;;;55.70;44.00;;;12.00;99.90;;;;;;5027769;28;20112;-81
2024/03/17 02:07:18;;;;;;;58.28;43.53;;;12.00;99.90;;;;;;5050280;28;20558;-81
2024/03/17 02:09:44;;;;;;;53.63;42.78;;;12.00;99.90;;;;;;5026137;28;20021;-81
2024/03/17 02:12:11;;;;;;;55.58;43.63;;;11.90;99.90;;;;;;5020296;28;20448;-81
2024/03/17 02:14:37;;;;;;;53.22;42.42;;;11.90;99.90;;;;;;5032054;28;20053;-81
2024/03/17 02:17:04;;;;;;;56.20;42.92;;;11.90;99.90;;;;;;5020302;28;20025;-81
2024/03/17 02:19:29;;;;;;;57.53;42.78;;;11.90;99.90;;;;;;5043881;28;20025;-81
2024/03/17 02:21:55;;;;;;;56.05;43.03;;;11.90;99.90;;;;;;5034629;28;20444;-81
2024/03/17 02:24:21;;;;;;;54.83;43.70;;;11.90;99.90;;;;;;5046665;28;20041;-81
2024/03/17 02:26:47;;;;;;;60.05;44.33;;;11.90;99.90;;;;;;5046780;28;20029;-80
2024/03/17 02:29:12;;;;;;;56.65;40.92;;;11.90;99.90;;;;;;5040724;28;20025;-80
2024/03/17 02:31:38;;;;;;;55.00;41.28;;;11.90;99.90;;;;;;5020075;28;20528;-80
2024/03/17 02:34:04;;;;;;;57.40;43.78;;;11.90;99.90;;;;;;5025357;28;20040;-81
2024/03/17 02:36:29;;;;;;;58.50;44.22;;;11.90;99.90;;;;;;5031610;28;20067;-81
2024/03/17 02:41:43;;;;;;;54.80;41.45;;;11.90;99.90;;;;;;5040070;28;20071;-81
2024/03/17 02:44:10;;;;;;;53.25;40.58;;;11.80;99.90;;;;;;5039690;28;20025;-81
2024/03/17 02:46:37;;;;;;;57.20;44.50;;;11.70;99.90;;;;;;5039545;28;20616;-81
2024/03/17 02:49:08;;;;;;;54.80;44.70;;;11.70;99.90;;;;;;5026975;28;20041;-81
2024/03/17 02:51:37;;;;;;;53.05;42.95;;;11.70;99.90;;;;;;5021301;28;20551;-81
2024/03/17 02:54:03;;;;;;;57.15;42.58;;;11.80;99.90;;;;;;5030575;28;20025;-81
2024/03/17 02:56:28;;;;;;;55.60;42.63;;;11.70;99.90;;;;;;5021733;28;20060;-81
2024/03/17 02:58:54;;;;;;;53.78;42.47;;;11.70;99.90;;;;;;5039675;28;20018;-81
2024/03/17 03:01:20;;;;;;;58.28;44.78;;;11.70;99.90;;;;;;5039434;28;20033;-80
2024/03/17 03:03:45;;;;;;;55.78;44.00;;;11.70;99.90;;;;;;5043660;28;20021;-81
2024/03/17 03:06:13;;;;;;;52.67;41.92;;;11.70;99.90;;;;;;5033303;28;20029;-81
2024/03/17 03:08:40;;;;;;;53.63;42.67;;;11.70;99.90;;;;;;5037726;28;20026;-81
2024/03/17 03:11:11;;;;;;;55.42;42.08;;;11.70;99.90;;;;;;5017594;28;20402;-81
2024/03/17 03:13:44;;;;;;;53.17;40.47;;;11.70;99.90;;;;;;5021571;28;20761;-81
2024/03/17 03:16:11;;;;;;;55.92;39.92;;;11.70;99.90;;;;;;5043158;28;20029;-81
2024/03/17 03:18:41;;;;;;;49.75;39.72;;;11.70;99.90;;;;;;5049244;28;20510;-81
2024/03/17 03:21:07;;;;;;;53.08;39.75;;;11.70;99.90;;;;;;5046912;28;20026;-81
2024/03/17 03:23:33;;;;;;;47.47;38.42;;;11.70;99.90;;;;;;5034697;28;20159;-81
2024/03/17 03:26:02;;;;;;;46.20;38.88;;;11.70;99.90;;;;;;5025045;28;20025;-81
2024/03/17 03:28:30;;;;;;;50.55;38.17;;;11.70;99.90;;;;;;5027121;28;20025;-81
2024/03/17 03:30:59;;;;;;;52.08;41.67;;;11.70;99.90;;;;;;5034550;28;20052;-81
2024/03/17 03:33:25;;;;;;;57.10;40.78;;;11.70;99.90;;;;;;5048148;28;20033;-81
2024/03/17 03:35:51;;;;;;;56.55;42.67;;;11.70;99.90;;;;;;5046218;28;20033;-81
2024/03/17 03:38:18;;;;;;;49.92;39.92;;;11.70;99.90;;;;;;5034817;28;20074;-81
2024/03/17 03:40:44;;;;;;;52.17;40.75;;;11.70;99.90;;;;;;5046666;28;20063;-81
2024/03/17 03:43:10;;;;;;;50.22;40.53;;;11.60;99.90;;;;;;5034109;28;20213;-81
2024/03/17 03:45:37;;;;;;;53.42;42.33;;;11.60;99.90;;;;;;5045188;28;20499;-81
2024/03/17 03:48:03;;;;;;;53.20;42.53;;;11.60;99.90;;;;;;5046260;28;20064;-81
2024/03/17 03:50:29;;;;;;;48.13;40.40;;;11.60;99.90;;;;;;5042599;28;20037;-81
2024/03/17 03:52:55;;;;;;;48.85;38.15;;;11.50;99.90;;;;;;5036142;28;20025;-81
2024/03/17 03:55:21;;;;;;;49.30;39.65;;;11.50;99.90;;;;;;5042284;28;20612;-81
2024/03/17 03:57:48;;;;;;;48.95;39.38;;;11.50;99.90;;;;;;5045653;28;20056;-81
2024/03/17 04:00:14;;;;;;;53.55;38.92;;;11.50;99.90;;;;;;5033147;28;20025;-81
2024/03/17 04:02:42;;;;;;;52.58;40.05;;;11.50;99.90;;;;;;5046324;28;20147;-81
2024/03/17 04:05:09;;;;;;;49.00;38.88;;;11.50;99.90;;;;;;5027166;28;20040;-81
2024/03/17 04:07:36;;;;;;;49.45;40.28;;;11.50;99.90;;;;;;5035738;28;20055;-81
2024/03/17 04:10:06;;;;;;;46.65;37.90;;;11.60;99.90;;;;;;5032925;28;20508;-81
2024/03/17 04:12:35;;;;;;;51.60;39.15;;;11.50;99.90;;;;;;5042961;28;20033;-81
2024/03/17 04:15:01;;;;;;;50.75;39.92;;;11.50;99.90;;;;;;5041137;28;20071;-80
2024/03/17 04:17:27;;;;;;;50.05;39.78;;;11.50;99.90;;;;;;5033337;28;20033;-81
2024/03/17 04:19:53;;;;;;;48.15;39.33;;;11.50;99.90;;;;;;5045066;28;20033;-80
2024/03/17 04:22:21;;;;;;;50.08;37.25;;;11.50;99.90;;;;;;5032941;28;20067;-80
2024/03/17 04:24:56;;;;;;;50.05;40.00;;;11.50;99.90;;;;;;5043207;28;20014;-81
2024/03/17 04:27:22;;;;;;;47.83;38.25;;;11.50;99.90;;;;;;5033248;28;20033;-80
2024/03/17 04:29:52;;;;;;;50.28;40.03;;;11.40;99.90;;;;;;5044794;28;20105;-81
2024/03/17 04:32:17;;;;;;;50.67;38.85;;;11.50;99.90;;;;;;5043029;28;20485;-81
2024/03/17 04:34:43;;;;;;;50.30;39.63;;;11.50;99.90;;;;;;5027068;28;20033;-80
2024/03/17 04:37:12;;;;;;;48.03;38.58;;;11.60;99.90;;;;;;5034077;28;20370;-80
2024/03/17 04:39:42;;;;;;;52.25;39.42;;;11.60;99.90;;;;;;5044432;28;20116;-80
2024/03/17 04:42:09;;;;;;;49.22;39.15;;;11.70;99.90;;;;;;5042878;28;20083;-80
2024/03/17 04:44:35;;;;;;;49.42;38.10;;;11.70;99.90;;;;;;5034402;28;20025;-80
2024/03/17 04:47:06;;;;;;;49.35;39.08;;;11.70;99.90;;;;;;5033673;28;20025;-81
2024/03/17 04:49:34;;;;;;;50.67;38.00;;;11.70;99.90;;;;;;5045322;28;20044;-81
2024/03/17 04:52:00;;;;;;;48.75;39.40;;;11.70;99.90;;;;;;5043646;28;20092;-81
2024/03/17 04:54:26;;;;;;;46.97;38.25;;;11.70;99.90;;;;;;5042987;28;20424;-80
2024/03/17 04:56:51;;;;;;;48.97;38.90;;;11.70;99.90;;;;;;5033297;28;20034;-81
2024/03/17 04:59:17;;;;;;;49.55;39.03;;;11.70;99.90;;;;;;5043641;28;20492;-80
2024/03/17 05:01:43;;;;;;;49.55;39.60;;;11.70;99.90;;;;;;5041957;28;20071;-80
2024/03/17 05:04:08;;;;;;;49.67;39.70;;;11.70;99.90;;;;;;5034582;28;20017;-80
2024/03/17 05:06:34;;;;;;;49.85;39.15;;;11.70;99.90;;;;;;5023260;28;20396;-80
2024/03/17 05:09:04;;;;;;;53.95;40.00;;;11.70;99.90;;;;;;5034928;28;20037;-80
2024/03/17 05:11:31;;;;;;;48.53;39.97;;;11.70;99.90;;;;;;5041115;28;20112;-80
2024/03/17 05:13:57;;;;;;;55.40;41.05;;;11.70;99.90;;;;;;5044695;28;20393;-80
2024/03/17 05:16:24;;;;;;;50.85;39.55;;;11.70;99.90;;;;;;5040885;28;20018;-80
2024/03/17 05:18:50;;;;;;;48.67;38.28;;;11.70;99.90;;;;;;5026275;28;20084;-80
2024/03/17 05:21:15;;;;;;;57.05;43.08;;;11.60;99.90;;;;;;5041397;28;20013;-80
2024/03/17 05:23:42;;;;;;;59.20;44.33;;;11.60;99.90;;;;;;5043446;28;20510;-80
2024/03/17 05:26:08;;;;;;;59.05;41.88;;;11.60;99.90;;;;;;5041845;28;20021;-80
2024/03/17 05:28:33;;;;;;;53.10;43.05;;;11.60;99.90;;;;;;5028334;28;20095;-80
2024/03/17 05:30:59;;;;;;;61.30;43.78;;;11.50;99.90;;;;;;5032460;28;20051;-81
2024/03/17 05:33:26;;;;;;;51.45;40.90;;;11.50;99.90;;;;;;5042040;28;20029;-81
2024/03/17 05:35:58;;;;;;;56.65;42.83;;;11.50;99.90;;;;;;5024881;28;20029;-81
2024/03/17 05:38:26;;;;;;;58.65;45.65;;;11.50;99.90;;;;;;5041688;28;20028;-81
2024/03/17 05:41:08;;;;;;;55.75;43.22;;;11.50;99.90;;;;;;5032397;28;20051;-81
2024/03/17 05:43:38;;;;;;;57.67;42.53;;;11.50;99.90;;;;;;5040265;28;20029;-81
2024/03/17 05:46:18;;;;;;;60.17;44.95;;;11.50;99.90;;;;;;5040204;28;20029;-81
2024/03/17 05:48:44;;;;;;;63.08;46.35;;;11.50;99.90;;;;;;5013918;28;20585;-81
2024/03/17 05:51:11;;;;;;;61.88;44.53;;;11.50;99.90;;;;;;5022884;28;20112;-80
2024/03/17 05:53:43;;;;;;;61.55;45.55;;;11.50;99.90;;;;;;5000506;28;20478;-80
2024/03/17 05:56:11;;;;;;;;;;;11.50;99.90;;;;;;5000476;28;20032;-81
2024/03/17 05:58:37;;;;;;;63.65;46.28;;;11.50;99.90;;;;;;5012667;28;19928;-80
2024/03/17 06:01:03;;;;;;;59.10;45.20;;;11.50;99.90;;;;;;5003526;28;20057;-81
2024/03/17 06:03:29;;;;;;;62.42;47.78;;;11.50;99.90;;;;;;5023009;28;20025;-80
2024/03/17 06:05:58;;;;;;;62.47;45.80;;;11.60;99.90;;;;;;5020691;28;20030;-81
2024/03/17 06:08:24;;;;;;;63.88;46.60;;;11.60;99.90;;;;;;5011396;28;20029;-81
2024/03/17 06:10:50;;;;;;;62.83;47.83;;;11.60;99.90;;;;;;5013670;28;20032;-80
2024/03/17 06:13:16;;;;;;;64.70;45.92;;;11.70;99.90;;;;;;5002278;28;20030;-81
2024/03/17 06:15:43;;;;;;;58.28;45.75;;;11.70;99.90;;;;;;5020008;28;20026;-81
2024/03/17 06:18:16;;;;;;;61.60;47.70;;;11.70;99.90;;;;;;5008540;28;20075;-81
2024/03/17 06:20:44;;;;;;;60.38;44.65;;;11.70;99.90;;;;;;5020222;28;20033;-80
2024/03/17 06:23:10;;;;;;;61.00;45.03;;;11.70;99.90;;;;;;5023472;28;20021;-81
2024/03/17 06:25:44;;;;;;;60.83;44.55;;;11.80;99.90;;;;;;5002199;28;20026;-80
2024/03/17 06:28:13;;;;;;;61.78;47.92;;;11.80;99.90;;;;;;5006252;28;20498;-80
2024/03/17 06:30:53;;;;;;;64.35;46.63;;;11.80;99.90;;;;;;5002999;28;20497;-80
2024/03/17 06:33:20;;;;;;;57.85;44.75;;;11.80;99.90;;;;;;5023572;28;20044;-81
2024/03/17 06:35:47;;;;;;;65.72;45.15;;;11.90;99.90;;;;;;5011601;28;20025;-80
2024/03/17 06:38:13;;;;;;;62.28;47.10;;;11.90;99.90;;;;;;5023841;28;20389;-81
2024/03/17 06:40:39;;;;;;;60.25;44.58;;;11.90;99.90;;;;;;5000403;28;20109;-81
2024/03/17 06:43:05;;;;;;;61.45;45.15;;;12.00;99.90;;;;;;5000227;28;20501;-81
2024/03/17 06:45:32;;;;;;;59.03;43.58;;;12.00;99.90;;;;;;5020995;28;20030;-78
2024/03/17 06:47:58;;;;;;;61.55;45.05;;;12.00;99.90;;;;;;5013443;28;20044;-79
2024/03/17 06:50:24;;;;;;;66.38;48.30;;;12.00;99.90;;;;;;5036908;28;20031;-79
2024/03/17 06:52:51;;;;;;;62.92;45.92;;;12.10;99.90;;;;;;5025668;28;20029;-79
2024/03/17 06:55:18;;;;;;;64.15;47.33;;;12.10;99.90;;;;;;5037065;28;20079;-79
2024/03/17 06:57:44;;;;;;;60.60;45.45;;;12.10;99.90;;;;;;5022213;28;20035;-79
2024/03/17 07:00:13;;;;;;;65.22;45.83;;;12.10;99.90;;;;;;5025507;28;20018;-79
2024/03/17 07:02:41;;;;;;;57.90;43.10;;;12.20;99.90;;;;;;5043415;28;20024;-79
2024/03/17 07:05:07;;;;;;;61.22;45.78;;;12.20;99.90;;;;;;5028571;28;20026;-79
2024/03/17 07:07:34;;;;;;;59.83;46.15;;;12.20;99.90;;;;;;5028834;28;20025;-79
2024/03/17 07:10:04;;;;;;;61.30;46.92;;;12.20;99.90;;;;;;5043481;28;20032;-79
2024/03/17 07:12:30;;;;;;;62.05;44.70;;;12.30;99.90;;;;;;5033678;28;20187;-79
2024/03/17 07:14:56;;;;;;;64.53;47.10;;;12.40;99.90;;;;;;5046056;28;20096;-79
2024/03/17 07:17:22;;;;;;;66.25;49.60;;;12.40;99.90;;;;;;5033899;28;20025;-79
2024/03/17 07:19:49;;;;;;;69.47;50.13;;;12.40;99.90;;;;;;5028864;28;20048;-79
2024/03/17 07:22:15;;;;;;;66.75;48.78;;;12.50;99.90;;;;;;5034239;28;20078;-79
2024/03/17 07:24:43;;;;;;;67.82;50.10;;;12.60;99.90;;;;;;5044719;28;20489;-79
2024/03/17 07:27:13;;;;;;;79.28;48.03;;;12.60;99.90;;;;;;5028678;28;20033;-79
2024/03/17 07:29:39;;;;;;;71.80;51.17;;;12.60;99.90;;;;;;5034484;28;20059;-79
2024/03/17 07:32:05;;;;;;;67.10;47.92;;;12.70;99.90;;;;;;5026809;28;20029;-79
2024/03/17 07:34:32;;;;;;;68.38;52.63;;;12.70;99.90;;;;;;5045959;28;20040;-79
2024/03/17 07:37:00;;;;;;;69.78;51.08;;;12.80;99.90;;;;;;5044658;28;20515;-79
2024/03/17 07:39:32;;;;;;;70.35;49.58;;;12.80;99.90;;;;;;5044019;28;20028;-79
2024/03/17 07:42:02;;;;;;;64.25;46.17;;;12.90;99.90;;;;;;5034204;28;20535;-79
2024/03/17 07:44:34;;;;;;;75.35;53.15;;;13.00;99.90;;;;;;5026629;28;20074;-79
2024/03/17 07:47:03;;;;;;;73.30;53.58;;;13.00;99.90;;;;;;5025406;28;20025;-79
2024/03/17 07:49:30;;;;;;;79.93;55.92;;;13.10;99.90;;;;;;5046309;28;20049;-79
2024/03/17 07:52:00;;;;;;;81.82;56.35;;;13.10;99.90;;;;;;5044748;28;20493;-79
2024/03/17 07:54:26;;;;;;;80.03;56.85;;;13.20;99.90;;;;;;5033258;28;20141;-79
2024/03/17 07:56:52;;;;;;;80.85;57.53;;;13.20;99.90;;;;;;5026687;28;20401;-79
2024/03/17 07:59:18;;;;;;;84.65;60.22;;;13.30;99.90;;;;;;5033033;28;20033;-79
2024/03/17 08:01:44;;;;;;;83.85;57.85;;;13.30;99.90;;;;;;5043203;28;20021;-79
2024/03/17 08:04:11;;;;;;;94.10;62.15;;;13.40;99.90;;;;;;5045745;28;20480;-79
2024/03/17 08:06:38;;;;;;;78.03;53.47;;;13.50;99.90;;;;;;5023899;28;20416;-79
2024/03/17 08:09:04;;;;;;;81.40;58.47;;;13.50;99.90;;;;;;5041711;28;20029;-79
2024/03/17 08:11:30;;;;;;;84.15;56.25;;;13.60;99.90;;;;;;5042763;28;20029;-79
2024/03/17 08:13:56;;;;;;;81.72;57.92;;;13.60;99.90;;;;;;5030868;28;20037;-79
2024/03/17 08:16:24;;;;;;;86.57;56.45;;;13.70;99.90;;;;;;5041813;28;20078;-79
2024/03/17 08:18:53;;;;;;;87.47;60.90;;;13.80;99.90;;;;;;5032757;28;20021;-79
2024/03/17 08:21:22;;;;;;;82.60;56.10;;;14.00;99.90;;;;;;5035257;28;20025;-79
2024/03/17 08:23:48;;;;;;;82.15;55.10;;;14.00;99.90;;;;;;5021144;28;20022;-79
2024/03/17 08:26:13;;;;;;;84.18;54.70;;;14.20;99.90;;;;;;5022539;28;20025;-79
2024/03/17 08:28:39;;;;;;;77.43;52.50;;;14.20;99.90;;;;;;5027465;28;20021;-79
2024/03/17 08:31:05;;;;;;;82.90;58.92;;;14.30;99.90;;;;;;5041540;28;20112;-79
2024/03/17 08:33:33;;;;;;;75.95;53.15;;;14.40;99.90;;;;;;5027012;28;20032;-79
2024/03/17 08:36:09;;;;;;;80.00;51.80;;;14.50;99.90;;;;;;5045091;28;20120;-79
2024/03/17 08:38:36;;;;;;;72.72;52.17;;;14.60;99.90;;;;;;5023891;28;20021;-79
2024/03/17 08:41:06;;;;;;;78.93;52.08;;;14.60;99.90;;;;;;5044823;28;20075;-79
2024/03/17 08:43:32;;;;;;;74.57;51.47;;;14.70;99.90;;;;;;5041726;28;20060;-79
2024/03/17 08:46:02;;;;;;;83.18;54.38;;;14.70;99.90;;;;;;5045039;28;20154;-79
2024/03/17 08:48:31;;;;;;;77.65;52.45;;;14.70;99.90;;;;;;5031154;28;20059;-79
2024/03/17 08:50:58;;;;;;;69.13;48.35;;;14.70;99.90;;;;;;5041567;28;20056;-79
2024/03/17 08:53:26;;;;;;;65.75;45.25;;;14.80;99.90;;;;;;5034813;28;20036;-79
2024/03/17 08:55:52;;;;;;;70.25;49.38;;;14.70;99.90;;;;;;5023174;28;20057;-79
2024/03/17 08:58:18;;;;;;;79.03;50.75;;;14.70;99.90;;;;;;5020347;28;20484;-79
2024/03/17 09:00:45;;;;;;;69.93;47.40;;;14.80;99.90;;;;;;5054140;28;20036;-79
2024/03/17 09:03:14;;;;;;;70.72;45.88;;;14.80;99.90;;;;;;5034946;28;20037;-79
2024/03/17 09:05:42;;;;;;;68.20;46.75;;;14.80;99.90;;;;;;5031323;28;20102;-79
2024/03/17 09:08:10;;;;;;;71.35;45.90;;;14.80;99.90;;;;;;5044044;28;20029;-79
2024/03/17 09:10:40;;;;;;;67.80;46.90;;;14.80;99.90;;;;;;5031218;28;20051;-79
2024/03/17 09:13:05;;;;;;;72.97;46.95;;;14.90;99.90;;;;;;5021709;28;20025;-79
2024/03/17 09:15:31;;;;;;;64.63;46.22;;;14.90;99.90;;;;;;5027968;28;20029;-79
2024/03/17 09:18:00;;;;;;;70.15;48.03;;;14.90;99.90;;;;;;5044126;28;20095;-79
2024/03/17 09:20:25;;;;;;;67.38;46.35;;;15.00;99.90;;;;;;5040120;28;20033;-79
2024/03/17 09:22:51;;;;;;;69.80;47.10;;;15.00;99.90;;;;;;5038345;28;20553;-79
2024/03/17 09:25:17;;;;;;;62.38;44.63;;;14.90;99.90;;;;;;5031572;28;20266;-79
2024/03/17 09:27:43;;;;;;;67.28;47.00;;;15.00;99.90;;;;;;5041217;28;20025;-79
2024/03/17 09:30:09;;;;;;;66.60;43.95;;;14.90;99.90;;;;;;5041272;28;20048;-79
2024/03/17 09:32:38;;;;;;;61.83;44.40;;;14.90;99.90;;;;;;5042504;28;20552;-79
2024/03/17 09:35:05;;;;;;;60.42;44.33;;;14.90;99.90;;;;;;5041476;28;20079;-79
2024/03/17 09:37:31;;;;;;;62.47;44.22;;;14.90;99.90;;;;;;5042765;28;20051;-79
2024/03/17 09:40:00;;;;;;;63.58;43.85;;;15.00;99.90;;;;;;5040985;28;20026;-79
2024/03/17 09:42:29;;;;;;;62.55;43.85;;;15.10;99.90;;;;;;5042931;28;20025;-79
2024/03/17 09:44:56;;;;;;;56.97;39.65;;;15.00;99.20;;;;;;5023509;28;20021;-79
2024/03/17 09:47:23;;;;;;;58.50;41.15;;;15.10;99.90;;;;;;5032875;28;20515;-79
2024/03/17 09:49:50;;;;;;;62.85;41.65;;;15.20;99.90;;;;;;5039889;28;20068;-79
2024/03/17 09:52:22;;;;;;;60.00;42.25;;;15.30;99.90;;;;;;5040185;28;20040;-79
2024/03/17 09:54:59;;;;;;;54.05;37.10;;;15.30;99.90;;;;;;5023408;28;20116;-78
2024/03/17 09:57:25;;;;;;;51.03;35.33;;;15.30;97.30;;;;;;5031507;28;20033;-79
2024/03/17 09:59:55;;;;;;;50.92;34.90;;;15.30;97.10;;;;;;5042102;28;20025;-79
2024/03/17 10:02:21;;;;;;;53.78;36.72;;;15.40;99.90;;;;;;5039425;28;20032;-78
2024/03/17 10:04:47;;;;;;;52.03;35.63;;;15.40;91.70;;;;;;5031742;28;20416;-79
2024/03/17 10:07:16;;;;;;;54.28;36.70;;;15.50;97.60;;;;;;5041576;28;20029;-79
2024/03/17 10:09:44;;;;;;;47.70;32.63;;;15.60;80.00;;;;;;5041592;28;20170;-79
2024/03/17 10:12:29;;;;;;;53.25;34.45;;;15.70;67.80;;;;;;5031949;28;20413;-79
2024/03/17 10:14:59;;;;;;;51.70;35.40;;;15.80;63.90;;;;;;5021914;28;20566;-79
2024/03/17 10:17:32;;;;;;;44.03;32.88;;;15.70;69.60;;;;;;5039940;28;20026;-78
2024/03/17 10:20:20;;;;;;;46.80;32.38;;;15.80;62.90;;;;;;5043368;28;20022;-79
2024/03/17 10:23:03;;;;;;;45.90;29.13;;;15.80;49.10;;;;;;5041928;28;20041;-79
2024/03/17 10:25:31;;;;;;;45.80;32.22;;;15.80;43.70;;;;;;5043231;28;20033;-79
2024/03/17 10:27:57;;;;;;;48.30;31.17;;;15.90;49.30;;;;;;5032047;28;20074;-79
2024/03/17 10:30:26;;;;;;;44.75;33.22;;;16.00;56.00;;;;;;5040587;28;20033;-79
2024/03/17 10:32:57;;;;;;;44.25;33.25;;;16.00;51.00;;;;;;5032141;28;20032;-79
2024/03/17 10:35:31;;;;;;;46.97;32.25;;;16.00;56.40;;;;;;5023171;28;20032;-79
2024/03/17 10:38:05;;;;;;;45.20;33.60;;;16.00;32.60;;;;;;5040673;28;20036;-78
2024/03/17 10:40:32;;;;;;;48.20;31.90;;;16.00;29.90;;;;;;5042627;28;20020;-79
2024/03/17 10:43:00;;;;;;;43.72;31.88;;;16.10;76.30;;;;;;5040025;28;20508;-79
2024/03/17 10:45:30;;;;;;;51.28;33.35;;;16.30;52.90;;;;;;5024585;28;20388;-79
2024/03/17 10:48:00;;;;;;;53.92;32.30;;;16.40;55.70;;;;;;5033118;28;20056;-79
2024/03/17 10:50:30;;;;;;;47.30;32.33;;;16.40;40.20;;;;;;5039459;28;20026;-79
2024/03/17 10:52:58;;;;;;;42.78;31.92;;;16.50;42.70;;;;;;5039530;28;20053;-79
2024/03/17 10:55:26;;;;;;;47.25;32.35;;;16.60;14.90;;;;;;5039320;28;20032;-79
2024/03/17 10:57:52;;;;;;;55.50;37.30;;;16.60;36.80;;;;;;5025077;28;20025;-78
2024/03/17 11:00:21;;;;;;;56.00;38.00;;;16.70;18.60;;;;;;5042875;28;20052;-79
2024/03/17 11:02:50;;;;;;;54.22;37.47;;;16.70;40.40;;;;;;5029870;28;20060;-79
2024/03/17 11:05:33;;;;;;;54.63;36.45;;;16.80;38.00;;;;;;5033062;28;20074;-78
2024/03/17 11:08:02;;;;;;;56.85;38.28;;;16.80;42.70;;;;;;5043461;28;20021;-79
2024/03/17 11:10:30;;;;;;;55.90;37.47;;;17.00;36.20;;;;;;5040994;28;20151;-79
2024/03/17 11:13:03;;;;;;;48.75;36.45;;;17.10;20.40;;;;;;5031386;28;20047;-79
2024/03/17 11:15:40;;;;;;;47.67;35.75;;;17.10;1.00;;;;;;5032007;28;20112;-78
2024/03/17 11:18:09;;;;;;;43.03;31.90;;;17.10;1.00;;;;;;5042785;28;20021;-79
2024/03/17 11:20:37;;;;;;;49.88;33.45;;;17.10;1.00;;;;;;5029582;28;20029;-78
2024/03/17 11:23:03;;;;;;;55.35;37.15;;;17.20;1.00;;;;;;5046188;28;20025;-79
2024/03/17 11:25:33;;;;;;;56.05;35.42;;;17.20;1.00;;;;;;5029786;28;20026;-78
2024/03/17 11:28:06;;;;;;;51.63;35.78;;;17.30;1.00;;;;;;5032971;28;20033;-79
2024/03/17 11:30:44;;;;;;;47.20;35.70;;;17.40;1.00;;;;;;5037737;28;20021;-78
2024/03/17 11:33:37;;;;;;;50.15;34.95;;;17.30;1.00;;;;;;5040329;28;20496;-79
2024/03/17 11:36:28;;;;;;;48.17;33.78;;;17.30;1.00;;;;;;5041622;28;20026;-79
2024/03/17 11:38:55;;;;;;;49.80;34.58;;;17.30;1.00;;;;;;5042652;28;20028;-78
2024/03/17 11:41:40;;;;;;;48.88;35.33;;;17.30;1.00;;;;;;5046143;28;20040;-78
2024/03/17 11:44:23;;;;;;;54.55;36.90;;;17.40;1.00;;;;;;5026557;28;20056;-78
2024/03/17 11:46:51;;;;;;;55.28;38.25;;;17.50;1.00;;;;;;5024624;28;20036;-79
2024/03/17 11:49:26;;;;;;;47.97;35.10;;;17.60;1.00;;;;;;5046157;28;20044;-78
2024/03/17 11:51:53;;;;;;;48.15;34.78;;;17.60;1.00;;;;;;5042933;28;20021;-79
2024/03/17 11:54:21;;;;;;;51.30;34.67;;;17.70;1.00;;;;;;5045289;28;20112;-79
2024/03/17 11:56:51;;;;;;;48.65;34.47;;;17.60;1.00;;;;;;5042611;28;20104;-79
2024/03/17 11:59:18;;;;;;;53.53;37.70;;;17.70;1.00;;;;;;5045015;28;20025;-79
2024/03/17 12:01:49;;;;;;;52.80;36.17;;;17.80;1.00;;;;;;5042174;28;20029;-79
2024/03/17 12:04:16;;;;;;;48.47;34.38;;;17.80;1.00;;;;;;5025141;28;20033;-78
2024/03/17 12:06:50;;;;;;;51.22;36.20;;;17.90;1.00;;;;;;5035928;28;20028;-78
2024/03/17 12:09:27;;;;;;;47.75;33.42;;;17.90;1.00;;;;;;5026150;28;20027;-78
2024/03/17 12:12:04;;;;;;;48.20;34.38;;;17.90;1.00;;;;;;5023305;28;20064;-79
2024/03/17 12:14:31;;;;;;;46.78;35.08;;;17.80;1.00;;;;;;5041908;28;20551;-78
2024/03/17 12:17:09;;;;;;;48.80;35.05;;;17.80;1.00;;;;;;5041932;28;20026;-79
2024/03/17 12:19:35;;;;;;;49.78;34.78;;;17.80;1.00;;;;;;5043582;28;20064;-79
2024/03/17 12:22:06;;;;;;;46.72;31.63;;;17.80;1.00;;;;;;5033102;28;20021;-78
2024/03/17 12:24:36;;;;;;;48.05;33.65;;;17.80;1.00;;;;;;5027465;28;20288;-78
2024/03/17 12:27:05;;;;;;;49.95;32.13;;;17.80;1.00;;;;;;5043955;28;20506;-79
2024/03/17 12:29:41;;;;;;;48.97;30.92;;;17.80;99.90;;;;;;5042971;28;20033;-78
2024/03/17 12:32:15;;;;;;;47.72;33.17;;;17.90;1.00;;;;;;5042605;28;20037;-78
2024/03/17 12:34:49;;;;;;;49.08;33.90;;;17.90;99.90;;;;;;5027082;28;20438;-78
2024/03/17 12:37:35;;;;;;;50.65;33.38;;;17.90;99.90;;;;;;5041536;28;20037;-78